Time,TemperatureF,DewpointF,PressureIn,WindDirection,WindDirectionDegrees,WindSpeedMPH,WindSpeedGustMPH,Humidity,HourlyPrecipIn,Conditions,Clouds,dailyrainin,SoftwareType,DateUTC
2013-01-31 00:01:00,14.0,6.0,-100.00,ESE,105,5.0,13.0,70,-99.99,,,-99.99,,2013-01-31 06:01:00,
2013-01-31 00:10:00,14.0,6.0,-100.00,ESE,105,5.0,13.0,70,-99.99,,,-99.99,,2013-01-31 06:10:00,
2013-01-31 08:03:00,7.0,-4.0,-100.00,ESE,120,6.0,11.0,61,-99.99,,,-99.99,,2013-01-31 14:03:00,
2013-01-31 08:11:00,7.0,-4.0,-100.00,ESE,120,6.0,11.0,61,-99.99,,,-99.99,,2013-01-31 14:11:00,
2013-01-31 08:22:00,7.0,-4.0,-100.00,ESE,120,6.0,11.0,61,-99.99,,,-99.99,,2013-01-31 14:22:00,
2013-01-31 08:42:00,8.0,-2.0,-100.00,SE,145,2.0,11.0,64,-99.99,,,-99.99,,2013-01-31 14:42:00,
2013-01-31 08:52:00,8.0,-2.0,-100.00,SE,145,2.0,11.0,64,-99.99,,,-99.99,,2013-01-31 14:52:00,
2013-01-31 09:03:00,8.0,-2.0,-100.00,SE,145,2.0,11.0,64,-99.99,,,-99.99,,2013-01-31 15:03:00,
2013-01-31 09:12:00,8.0,-2.0,-100.00,SE,145,2.0,11.0,64,-99.99,,,-99.99,,2013-01-31 15:12:00,
2013-01-31 09:22:00,8.0,-2.0,-100.00,SE,145,2.0,11.0,64,-99.99,,,-99.99,,2013-01-31 15:22:00,
2013-01-31 09:52:00,8.0,-3.0,-100.00,SE,140,6.0,17.0,61,-99.99,,,-99.99,,2013-01-31 15:52:00,
2013-01-31 10:03:00,8.0,-3.0,-100.00,SE,140,6.0,17.0,61,-99.99,,,-99.99,,2013-01-31 16:03:00,
2013-01-31 10:12:00,8.0,-3.0,-100.00,SE,140,6.0,17.0,61,-99.99,,,-99.99,,2013-01-31 16:12:00,
2013-01-31 10:22:00,8.0,-3.0,-100.00,SE,140,6.0,17.0,61,-99.99,,,-99.99,,2013-01-31 16:22:00,
2013-01-31 10:52:00,9.0,-5.0,-100.00,SSE,165,7.0,18.0,53,-99.99,,,-99.99,,2013-01-31 16:52:00,
2013-01-31 11:02:00,9.0,-5.0,-100.00,SSE,165,7.0,18.0,53,-99.99,,,-99.99,,2013-01-31 17:02:00,
2013-01-31 11:12:00,9.0,-5.0,-100.00,SSE,165,7.0,18.0,53,-99.99,,,-99.99,,2013-01-31 17:12:00,
2013-01-31 11:23:00,9.0,-5.0,-100.00,SSE,165,7.0,18.0,53,-99.99,,,-99.99,,2013-01-31 17:23:00,
2013-01-31 11:53:00,12.0,-4.0,-100.00,SE,140,7.0,14.0,50,-99.99,,,-99.99,,2013-01-31 17:53:00,
2013-01-31 12:03:00,12.0,-4.0,-100.00,SE,140,7.0,14.0,50,-99.99,,,-99.99,,2013-01-31 18:03:00,
2013-01-31 12:12:00,12.0,-4.0,-100.00,SE,140,7.0,14.0,50,-99.99,,,-99.99,,2013-01-31 18:12:00,
2013-01-31 12:22:00,12.0,-4.0,-100.00,SE,140,7.0,14.0,50,-99.99,,,-99.99,,2013-01-31 18:22:00,
2013-01-31 12:43:00,10.0,-7.0,-100.00,South,180,9.0,19.0,47,-99.99,,,-99.99,,2013-01-31 18:43:00,
2013-01-31 12:52:00,10.0,-7.0,-100.00,South,180,9.0,19.0,47,-99.99,,,-99.99,,2013-01-31 18:52:00,
2013-01-31 13:02:00,10.0,-7.0,-100.00,South,180,9.0,19.0,47,-99.99,,,-99.99,,2013-01-31 19:02:00,
2013-01-31 14:52:00,11.0,-6.0,-100.00,SSE,150,6.0,15.0,47,-99.99,,,-99.99,,2013-01-31 20:52:00,
2013-01-31 15:02:00,11.0,-6.0,-100.00,SSE,150,6.0,15.0,47,-99.99,,,-99.99,,2013-01-31 21:02:00,
2013-01-31 15:12:00,11.0,-6.0,-100.00,SSE,150,6.0,15.0,47,-99.99,,,-99.99,,2013-01-31 21:12:00,
2013-01-31 15:22:00,11.0,-6.0,-100.00,SSE,150,6.0,15.0,47,-99.99,,,-99.99,,2013-01-31 21:22:00,
2013-01-31 15:30:00,8.0,-6.0,-100.00,SSE,150,9.0,16.0,51,-99.99,,,-99.99,,2013-01-31 21:30:00,
2013-01-31 15:52:00,8.0,-6.0,-100.00,SSE,150,9.0,16.0,51,-99.99,,,-99.99,,2013-01-31 21:52:00,
2013-01-31 16:03:00,8.0,-6.0,-100.00,SSE,150,9.0,16.0,51,-99.99,,,-99.99,,2013-01-31 22:03:00,
2013-01-31 16:11:00,8.0,-6.0,-100.00,SSE,150,9.0,16.0,51,-99.99,,,-99.99,,2013-01-31 22:11:00,
2013-01-31 16:22:00,8.0,-6.0,-100.00,SSE,150,9.0,16.0,51,-99.99,,,-99.99,,2013-01-31 22:22:00,
2013-01-31 16:42:00,7.0,-7.0,-100.00,SE,135,7.0,15.0,52,-99.99,,,-99.99,,2013-01-31 22:42:00,
2013-01-31 16:52:00,7.0,-7.0,-100.00,SE,135,7.0,15.0,52,-99.99,,,-99.99,,2013-01-31 22:52:00,
2013-01-31 17:02:00,7.0,-7.0,-100.00,SE,135,7.0,15.0,52,-99.99,,,-99.99,,2013-01-31 23:02:00,
2013-01-31 17:12:00,7.0,-7.0,-100.00,SE,135,7.0,15.0,52,-99.99,,,-99.99,,2013-01-31 23:12:00,
2013-01-31 17:42:00,6.0,-6.0,-100.00,SE,145,5.0,12.0,57,-99.99,,,-99.99,,2013-01-31 23:42:00,
2013-01-31 17:52:00,6.0,-6.0,-100.00,SE,145,5.0,12.0,57,-99.99,,,-99.99,,2013-01-31 23:52:00,
2013-01-31 18:01:00,6.0,-6.0,-100.00,SE,145,5.0,12.0,57,-99.99,,,-99.99,,2013-02-01 00:01:00,
2013-01-31 18:11:00,6.0,-6.0,-100.00,SE,145,5.0,12.0,57,-99.99,,,-99.99,,2013-02-01 00:11:00,
2013-01-31 18:42:00,4.0,-7.0,-100.00,SE,135,4.0,15.0,60,-99.99,,,-99.99,,2013-02-01 00:42:00,
2013-01-31 18:52:00,4.0,-7.0,-100.00,SE,135,4.0,15.0,60,-99.99,,,-99.99,,2013-02-01 00:52:00,
2013-01-31 19:01:00,4.0,-7.0,-100.00,SE,135,4.0,15.0,60,-99.99,,,-99.99,,2013-02-01 01:01:00,
2013-01-31 19:11:00,4.0,-7.0,-100.00,SE,135,4.0,15.0,60,-99.99,,,-99.99,,2013-02-01 01:11:00,
2013-01-31 19:20:00,3.0,-8.0,-100.00,ESE,120,4.0,11.0,60,-99.99,,,-99.99,,2013-02-01 01:20:00,
2013-01-31 19:42:00,3.0,-8.0,-100.00,ESE,120,4.0,11.0,60,-99.99,,,-99.99,,2013-02-01 01:42:00,
2013-01-31 19:52:00,3.0,-8.0,-100.00,ESE,120,4.0,11.0,60,-99.99,,,-99.99,,2013-02-01 01:52:00,
2013-01-31 20:02:00,3.0,-8.0,-100.00,ESE,120,4.0,11.0,60,-99.99,,,-99.99,,2013-02-01 02:02:00,
2013-01-31 20:11:00,3.0,-8.0,-100.00,ESE,120,4.0,11.0,60,-99.99,,,-99.99,,2013-02-01 02:11:00,
2013-01-31 20:20:00,2.0,-8.0,-100.00,SE,125,6.0,11.0,62,-99.99,,,-99.99,,2013-02-01 02:20:00,
2013-01-31 20:42:00,2.0,-8.0,-100.00,SE,125,6.0,11.0,62,-99.99,,,-99.99,,2013-02-01 02:42:00,
2013-01-31 20:52:00,2.0,-8.0,-100.00,SE,125,6.0,11.0,62,-99.99,,,-99.99,,2013-02-01 02:52:00,
2013-01-31 21:02:00,2.0,-8.0,-100.00,SE,125,6.0,11.0,62,-99.99,,,-99.99,,2013-02-01 03:02:00,
2013-01-31 21:12:00,2.0,-8.0,-100.00,SE,125,6.0,11.0,62,-99.99,,,-99.99,,2013-02-01 03:12:00,
2013-01-31 21:42:00,1.0,-9.0,-100.00,SE,140,5.0,12.0,63,-99.99,,,-99.99,,2013-02-01 03:42:00,
2013-01-31 21:52:00,1.0,-9.0,-100.00,SE,140,5.0,12.0,63,-99.99,,,-99.99,,2013-02-01 03:52:00,
2013-01-31 22:02:00,1.0,-9.0,-100.00,SE,140,5.0,12.0,63,-99.99,,,-99.99,,2013-02-01 04:02:00,
2013-01-31 22:11:00,1.0,-9.0,-100.00,SE,140,5.0,12.0,63,-99.99,,,-99.99,,2013-02-01 04:11:00,
2013-01-31 22:42:00,0.0,-9.0,-100.00,ESE,110,4.0,11.0,64,-99.99,,,-99.99,,2013-02-01 04:42:00,
2013-01-31 22:52:00,0.0,-9.0,-100.00,ESE,110,4.0,11.0,64,-99.99,,,-99.99,,2013-02-01 04:52:00,
2013-01-31 23:03:00,0.0,-9.0,-100.00,ESE,110,4.0,11.0,64,-99.99,,,-99.99,,2013-02-01 05:03:00,
2013-01-31 23:12:00,0.0,-9.0,-100.00,ESE,110,4.0,11.0,64,-99.99,,,-99.99,,2013-02-01 05:12:00,
2013-01-31 23:42:00,-1.0,-10.0,-100.00,SE,125,4.0,11.0,64,-99.99,,,-99.99,,2013-02-01 05:42:00,
2013-01-31 23:52:00,-1.0,-10.0,-100.00,SE,125,4.0,11.0,64,-99.99,,,-99.99,,2013-02-01 05:52:00,